createdAt,value
2023-02-28T00:01:07.605Z,100337.00
2023-02-28T00:03:36.206Z,100336.81
2023-02-28T00:06:07.471Z,100331.91
2023-02-28T00:08:34.653Z,100336.63
2023-02-28T00:11:15.734Z,100327.44
2023-02-28T00:13:47.435Z,100333.97
2023-02-28T00:16:22.809Z,100334.63
2023-02-28T00:18:49.969Z,100334.81
2023-02-28T00:21:18.431Z,100327.44
2023-02-28T00:23:45.140Z,100334.81
2023-02-28T00:26:11.817Z,100331.75
2023-02-28T00:28:38.455Z,100334.81
2023-02-28T00:31:05.747Z,100328.69
2023-02-28T00:33:32.437Z,100336.44
2023-02-28T00:36:04.869Z,100339.50
2023-02-28T00:38:31.619Z,100335.44
2023-02-28T00:40:59.523Z,100336.47
2023-02-28T00:43:26.701Z,100337.50
2023-02-28T00:45:53.311Z,100334.19
2023-02-28T00:48:20.295Z,100346.25
2023-02-28T00:50:50.298Z,100346.47
2023-02-28T00:53:16.881Z,100352.00
2023-02-28T00:55:43.442Z,100348.72
2023-02-28T00:58:10.057Z,100350.78
2023-02-28T01:00:36.585Z,100351.59
2023-02-28T01:03:03.252Z,100356.50
2023-02-28T01:05:29.882Z,100353.22
2023-02-28T01:07:56.414Z,100352.41
2023-02-28T01:10:23.056Z,100352.63
2023-02-28T01:12:49.599Z,100361.00
2023-02-28T01:15:16.297Z,100359.34
2023-02-28T01:17:42.893Z,100363.00
2023-02-28T01:20:10.806Z,100354.84
2023-02-28T01:22:37.369Z,100356.69
2023-02-28T01:25:04.483Z,100361.00
2023-02-28T01:27:31.076Z,100350.75
2023-02-28T01:29:57.664Z,100350.13
2023-02-28T01:32:24.374Z,100353.81
2023-02-28T01:34:50.989Z,100354.03
2023-02-28T01:37:17.547Z,100352.59
2023-02-28T01:39:44.084Z,100345.03
2023-02-28T01:42:11.175Z,100351.16
2023-02-28T01:45:01.697Z,100346.47
2023-02-28T01:47:33.249Z,100349.13
2023-02-28T01:50:01.733Z,100344.22
2023-02-28T01:52:29.326Z,100355.25
2023-02-28T01:55:00.348Z,100343.97
2023-02-28T01:57:38.559Z,100351.56
2023-02-28T02:00:09.048Z,100344.19
2023-02-28T02:02:37.830Z,100338.44
2023-02-28T02:05:09.723Z,100341.31
2023-02-28T02:07:37.977Z,100338.03
2023-02-28T02:10:18.597Z,100332.53
2023-02-28T02:13:22.397Z,100341.09
2023-02-28T02:16:04.153Z,100330.03
2023-02-28T02:18:33.470Z,100330.03
2023-02-28T02:21:17.006Z,100338.41
2023-02-28T02:24:05.302Z,100335.16
2023-02-28T02:27:06.553Z,100326.34
2023-02-28T02:29:38.986Z,100328.19
2023-02-28T02:32:29.736Z,100333.69
2023-02-28T02:35:23.665Z,100329.22
2023-02-28T02:38:09.771Z,100331.25
2023-02-28T02:40:43.668Z,100337.59
2023-02-28T02:43:34.054Z,100333.91
2023-02-28T02:46:06.525Z,100331.03
2023-02-28T02:48:37.457Z,100321.44
2023-02-28T02:51:12.925Z,100328.59
2023-02-28T02:53:47.323Z,100333.91
2023-02-28T02:56:16.135Z,100327.78
2023-02-28T02:58:44.909Z,100334.31
2023-02-28T03:01:31.507Z,100328.59
2023-02-28T03:04:02.290Z,100328.59
2023-02-28T03:06:29.368Z,100331.41
2023-02-28T03:08:56.088Z,100327.75
2023-02-28T03:11:22.874Z,100317.13
2023-02-28T03:14:04.396Z,100320.44
2023-02-28T03:16:36.285Z,100320.03
2023-02-28T03:19:15.155Z,100318.97
2023-02-28T03:22:02.259Z,100313.47
2023-02-28T03:24:56.607Z,100317.13
2023-02-28T03:27:30.904Z,100315.75
2023-02-28T03:30:05.220Z,100319.19
2023-02-28T03:32:40.882Z,100309.81
2023-02-28T03:35:32.052Z,100311.81
2023-02-28T03:38:08.492Z,100313.88
2023-02-28T03:40:38.076Z,100313.88
2023-02-28T03:43:13.945Z,100308.97
2023-02-28T03:45:42.703Z,100313.47
2023-02-28T03:48:22.813Z,100313.44
2023-02-28T03:50:54.595Z,100311.81
2023-02-28T03:53:27.605Z,100318.94
2023-02-28T03:56:19.182Z,100315.88
2023-02-28T03:58:56.673Z,100315.47
2023-02-28T04:01:31.699Z,100321.41
2023-02-28T04:03:58.750Z,100320.38
2023-02-28T04:06:25.760Z,100320.38
2023-02-28T04:08:52.521Z,100321.19
2023-02-28T04:11:24.202Z,100319.56
2023-02-28T04:13:51.142Z,100321.41
2023-02-28T04:16:33.537Z,100323.84
2023-02-28T04:19:04.016Z,100315.06
2023-02-28T04:21:32.356Z,100318.13
2023-02-28T04:24:01.593Z,100319.16
2023-02-28T04:26:36.335Z,100323.84
2023-02-28T04:29:05.514Z,100328.53
2023-02-28T04:31:33.040Z,100324.25
2023-02-28T04:33:59.731Z,100321.19
2023-02-28T04:36:26.751Z,100319.94
2023-02-28T04:38:53.715Z,100324.25
2023-02-28T04:41:21.120Z,100317.31
2023-02-28T04:43:48.251Z,100323.59
2023-02-28T04:46:14.849Z,100314.84
2023-02-28T04:48:41.794Z,100316.66
2023-02-28T04:51:10.971Z,100317.47
2023-02-28T04:53:39.989Z,100311.34
2023-02-28T04:56:07.899Z,100313.38
2023-02-28T04:58:35.685Z,100314.22
2023-02-28T05:01:05.095Z,100315.41
2023-02-28T05:03:31.730Z,100317.44
2023-02-28T05:05:58.346Z,100317.66
2023-02-28T05:08:24.959Z,100320.69
2023-02-28T05:10:51.694Z,100329.66
2023-02-28T05:13:18.237Z,100331.69
2023-02-28T05:15:44.787Z,100323.56
2023-02-28T05:18:11.433Z,100321.94
2023-02-28T05:20:38.841Z,100320.28
2023-02-28T05:23:05.491Z,100330.06
2023-02-28T05:25:32.060Z,100325.59
2023-02-28T05:27:58.593Z,100336.19
2023-02-28T05:30:25.190Z,100336.59
2023-02-28T05:32:52.798Z,100338.63
2023-02-28T05:35:19.375Z,100342.09
2023-02-28T05:37:46.066Z,100342.66
2023-02-28T05:40:13.135Z,100346.34
2023-02-28T05:42:40.191Z,100342.25
2023-02-28T05:45:08.052Z,100343.47
2023-02-28T05:47:35.765Z,100347.13
2023-02-28T05:50:03.111Z,100345.88
2023-02-28T05:52:31.117Z,100346.91
2023-02-28T05:54:57.677Z,100344.25
2023-02-28T05:57:25.092Z,100352.84
2023-02-28T05:59:51.869Z,100335.22
2023-02-28T06:02:19.137Z,100333.63
2023-02-28T06:04:46.666Z,100327.69
2023-02-28T06:07:13.412Z,100331.50
2023-02-28T06:09:40.293Z,100337.59
2023-02-28T06:12:08.269Z,100343.84
2023-02-28T06:14:35.929Z,100345.44
2023-02-28T06:17:03.715Z,100343.69
2023-02-28T06:19:31.200Z,100342.81
2023-02-28T06:21:58.296Z,100343.41
2023-02-28T06:24:29.014Z,100345.81
2023-02-28T06:26:55.813Z,100352.81
2023-02-28T06:29:22.754Z,100369.16
2023-02-28T06:31:49.736Z,100368.72
2023-02-28T06:34:17.404Z,100361.97
2023-02-28T06:36:44.527Z,100372.75
2023-02-28T06:39:11.109Z,100369.88
2023-02-28T06:41:53.532Z,100372.72
2023-02-28T06:44:21.889Z,100378.38
2023-02-28T06:46:49.668Z,100380.81
2023-02-28T06:49:16.787Z,100381.41
2023-02-28T06:51:46.128Z,100387.50
2023-02-28T06:54:13.256Z,100391.78
2023-02-28T06:56:40.045Z,100396.63
2023-02-28T06:59:07.013Z,100396.63
2023-02-28T07:01:33.945Z,100398.66
2023-02-28T07:04:01.354Z,100398.25
2023-02-28T07:06:28.306Z,100400.09
2023-02-28T07:08:55.451Z,100393.75
2023-02-28T07:11:23.984Z,100397.03
2023-02-28T07:13:57.829Z,100407.47
2023-02-28T07:16:26.649Z,100397.25
2023-02-28T07:18:54.458Z,100392.19
2023-02-28T07:21:21.635Z,100404.06
2023-02-28T07:23:48.218Z,100400.78
2023-02-28T07:26:18.149Z,100402.06
2023-02-28T07:28:46.958Z,100410.41
2023-02-28T07:31:18.124Z,100407.00
2023-02-28T07:33:45.068Z,100410.28
2023-02-28T07:36:15.076Z,100401.69
2023-02-28T07:38:45.230Z,100402.97
2023-02-28T07:41:13.703Z,100402.34
2023-02-28T07:43:40.295Z,100405.44
2023-02-28T07:46:12.233Z,100392.75
2023-02-28T07:48:38.932Z,100403.81
2023-02-28T07:51:05.803Z,100399.75
2023-02-28T07:53:32.381Z,100393.22
2023-02-28T07:56:00.602Z,100402.03
2023-02-28T07:58:28.688Z,100397.72
2023-02-28T08:00:55.825Z,100394.47
2023-02-28T08:03:24.109Z,100402.25
2023-02-28T08:05:51.153Z,100389.41
2023-02-28T08:08:17.920Z,100391.25
2023-02-28T08:10:44.927Z,100395.72
2023-02-28T08:13:11.585Z,100399.22
2023-02-28T08:15:38.175Z,100395.31
2023-02-28T08:18:05.312Z,100400.22
2023-02-28T08:20:31.866Z,100396.97
2023-02-28T08:22:58.506Z,100394.50
2023-02-28T08:25:25.075Z,100386.72
2023-02-28T08:27:53.255Z,100393.50
2023-02-28T08:30:20.093Z,100394.47
2023-02-28T08:32:46.838Z,100399.38
2023-02-28T08:35:13.653Z,100397.75
2023-02-28T08:37:40.229Z,100395.69
2023-02-28T08:40:07.676Z,100396.03
2023-02-28T08:42:34.518Z,100387.84
2023-02-28T08:45:01.245Z,100382.88
2023-02-28T08:47:27.798Z,100389.41
2023-02-28T08:49:54.540Z,100389.38
2023-02-28T08:52:21.068Z,100385.25
2023-02-28T08:54:47.892Z,100380.53
2023-02-28T08:57:14.640Z,100391.38
2023-02-28T08:59:41.300Z,100391.56
2023-02-28T09:02:13.145Z,100377.81
2023-02-28T09:04:39.704Z,100376.97
2023-02-28T09:07:06.314Z,100381.22
2023-02-28T09:09:34.853Z,100374.22
2023-02-28T09:12:01.500Z,100376.63
2023-02-28T09:14:28.049Z,100386.69
2023-02-28T09:16:54.681Z,100365.81
2023-02-28T09:19:21.479Z,100373.97
2023-02-28T09:21:47.998Z,100363.69
2023-02-28T09:24:16.196Z,100375.31
2023-02-28T09:26:55.861Z,100379.81
2023-02-28T09:29:29.709Z,100372.53
2023-02-28T09:31:58.554Z,100371.63
2023-02-28T09:34:26.427Z,100369.06
2023-02-28T09:36:55.776Z,100365.31
2023-02-28T09:39:23.536Z,100376.28
2023-02-28T09:41:53.370Z,100369.22
2023-02-28T09:44:44.895Z,100357.63
2023-02-28T09:47:19.241Z,100376.47
2023-02-28T09:49:48.872Z,100360.59
2023-02-28T09:52:20.562Z,100358.91
2023-02-28T09:54:47.190Z,100360.63
2023-02-28T09:57:41.276Z,100357.94
2023-02-28T10:00:25.626Z,100359.44
2023-02-28T10:03:40.374Z,100365.50
2023-02-28T10:06:17.952Z,100361.25
2023-02-28T10:09:02.893Z,100361.69
2023-02-28T10:11:32.759Z,100354.34
2023-02-28T10:14:06.859Z,100359.69
2023-02-28T10:16:41.333Z,100352.72
2023-02-28T10:19:16.107Z,100359.09
2023-02-28T10:21:49.866Z,100357.16
2023-02-28T10:24:28.270Z,100359.63
2023-02-28T10:27:01.642Z,100356.28
2023-02-28T10:29:32.782Z,100362.09
2023-02-28T10:32:03.253Z,100357.84
2023-02-28T10:34:29.830Z,100350.69
2023-02-28T10:36:57.235Z,100342.00
2023-02-28T10:39:38.488Z,100339.47
2023-02-28T10:42:06.516Z,100344.59
2023-02-28T10:44:33.251Z,100338.66
2023-02-28T10:47:01.126Z,100346.94
2023-02-28T10:49:31.457Z,100331.81
2023-02-28T10:52:01.028Z,100337.94
2023-02-28T10:54:36.467Z,100337.25
2023-02-28T10:57:18.762Z,100344.22
2023-02-28T10:59:45.991Z,100337.25
2023-02-28T11:02:36.202Z,100324.94
2023-02-28T11:05:03.615Z,100319.22
2023-02-28T11:07:37.301Z,100327.53
2023-02-28T11:10:10.119Z,100320.97
2023-02-28T11:12:52.317Z,100314.94
2023-02-28T11:15:22.142Z,100314.16
2023-02-28T11:18:01.388Z,100314.16
2023-02-28T11:20:32.628Z,100309.22
2023-02-28T11:23:02.744Z,100320.31
2023-02-28T11:25:38.846Z,100308.66
2023-02-28T11:28:24.140Z,100314.16
2023-02-28T11:31:03.707Z,100313.53
2023-02-28T11:33:33.274Z,100306.44
2023-02-28T11:36:05.656Z,100306.22
2023-02-28T11:38:36.013Z,100301.16
2023-02-28T11:41:08.669Z,100311.09
2023-02-28T11:43:51.916Z,100311.09
2023-02-28T11:46:28.429Z,100307.34
2023-02-28T11:49:14.529Z,100306.53
2023-02-28T11:52:16.522Z,100306.69
2023-02-28T11:54:45.815Z,100307.84
2023-02-28T11:57:18.481Z,100295.84
2023-02-28T12:00:02.997Z,100299.31
2023-02-28T12:03:00.122Z,100296.66
2023-02-28T12:05:50.875Z,100292.53
2023-02-28T12:08:23.536Z,100298.03
2023-02-28T12:10:52.984Z,100300.72
2023-02-28T12:13:28.072Z,100297.03
2023-02-28T12:16:00.795Z,100293.13
2023-02-28T12:18:39.716Z,100296.06
2023-02-28T12:21:27.879Z,100294.94
2023-02-28T12:24:09.472Z,100291.28
2023-02-28T12:26:50.401Z,100300.03
2023-02-28T12:29:35.164Z,100290.84
2023-02-28T12:32:14.385Z,100294.00
2023-02-28T12:34:56.170Z,100298.28
2023-02-28T12:37:41.151Z,100293.75
2023-02-28T12:40:20.135Z,100287.94
2023-02-28T12:42:51.685Z,100303.66
2023-02-28T12:45:22.836Z,100295.63
2023-02-28T12:48:00.794Z,100295.50
2023-02-28T12:50:28.427Z,100294.34
2023-02-28T12:53:30.472Z,100289.44
2023-02-28T12:56:11.934Z,100290.63
2023-02-28T12:58:50.528Z,100284.09
2023-02-28T13:01:44.034Z,100281.56
2023-02-28T13:04:44.497Z,100289.25
2023-02-28T13:07:13.966Z,100279.22
2023-02-28T13:09:41.275Z,100281.66
2023-02-28T13:12:17.729Z,100274.44
2023-02-28T13:14:44.636Z,100272.94
2023-02-28T13:17:16.680Z,100276.88
2023-02-28T13:20:01.443Z,100267.78
2023-02-28T13:22:40.915Z,100274.28
2023-02-28T13:25:26.045Z,100271.13
2023-02-28T13:27:57.880Z,100269.19
2023-02-28T13:30:43.506Z,100270.56
2023-02-28T13:33:32.486Z,100263.66
2023-02-28T13:36:14.575Z,100269.78
2023-02-28T13:38:42.856Z,100263.63
2023-02-28T13:41:37.160Z,100262.09
2023-02-28T13:44:29.762Z,100258.59
2023-02-28T13:46:56.973Z,100258.59
2023-02-28T13:49:23.874Z,100250.56
2023-02-28T13:51:54.343Z,100268.50
2023-02-28T13:54:39.816Z,100259.06
2023-02-28T13:57:21.546Z,100261.75
2023-02-28T14:00:06.545Z,100259.06
2023-02-28T14:02:50.108Z,100255.91
2023-02-28T14:05:19.165Z,100265.78
2023-02-28T14:07:52.388Z,100260.44
2023-02-28T14:10:27.379Z,100259.94
2023-02-28T14:13:04.731Z,100255.94
2023-02-28T14:15:34.373Z,100262.78
2023-02-28T14:18:12.691Z,100264.53
2023-02-28T14:20:42.013Z,100264.34
2023-02-28T14:23:19.266Z,100263.88
2023-02-28T14:25:54.601Z,100268.94
2023-02-28T14:28:36.088Z,100264.06
2023-02-28T14:31:12.362Z,100260.19
2023-02-28T14:34:00.012Z,100265.00
2023-02-28T14:36:38.185Z,100259.63
2023-02-28T14:39:21.339Z,100258.69
2023-02-28T14:41:48.195Z,100252.84
2023-02-28T14:44:26.845Z,100260.88
2023-02-28T14:46:56.149Z,100263.56
2023-02-28T14:49:28.671Z,100262.50
2023-02-28T14:52:10.633Z,100264.13
2023-02-28T14:54:38.823Z,100272.34
2023-02-28T14:57:06.062Z,100262.19
2023-02-28T14:59:37.094Z,100263.72
2023-02-28T15:02:24.168Z,100256.25
2023-02-28T15:04:58.357Z,100258.06
2023-02-28T15:07:29.513Z,100254.66
2023-02-28T15:10:32.081Z,100256.84
2023-02-28T15:13:01.981Z,100250.97
2023-02-28T15:16:04.248Z,100257.84
2023-02-28T15:18:49.338Z,100248.28
2023-02-28T15:21:25.335Z,100250.06
2023-02-28T15:24:00.253Z,100253.91
2023-02-28T15:26:33.209Z,100251.72
2023-02-28T15:29:07.882Z,100244.16
2023-02-28T15:31:55.782Z,100243.03
2023-02-28T15:34:42.273Z,100248.16
2023-02-28T15:37:38.441Z,100243.59
2023-02-28T15:40:28.038Z,100233.94
2023-02-28T15:43:06.092Z,100234.28
2023-02-28T15:45:51.335Z,100239.88
2023-02-28T15:48:24.102Z,100229.47
2023-02-28T15:51:12.115Z,100225.50
2023-02-28T15:54:03.723Z,100231.97
2023-02-28T15:56:33.125Z,100227.94
2023-02-28T15:59:06.382Z,100229.28
2023-02-28T16:01:39.823Z,100228.06
2023-02-28T16:04:18.718Z,100231.06
2023-02-28T16:06:45.827Z,100229.88
2023-02-28T16:09:17.197Z,100237.25
2023-02-28T16:11:53.600Z,100243.69
2023-02-28T16:14:26.073Z,100249.69
2023-02-28T16:16:58.202Z,100246.81
2023-02-28T16:19:25.152Z,100253.19
2023-02-28T16:21:52.241Z,100239.44
2023-02-28T16:24:19.014Z,100259.19
2023-02-28T16:26:49.250Z,100255.19
2023-02-28T16:29:25.278Z,100258.97
2023-02-28T16:31:51.898Z,100259.25
2023-02-28T16:34:18.464Z,100267.13
2023-02-28T16:36:48.128Z,100268.78
2023-02-28T16:39:14.956Z,100269.38
2023-02-28T16:41:46.731Z,100267.31
2023-02-28T16:44:35.001Z,100266.84
2023-02-28T16:47:03.764Z,100275.03
2023-02-28T16:49:30.690Z,100274.09
2023-02-28T16:51:57.699Z,100275.03
2023-02-28T16:54:24.364Z,100275.97
2023-02-28T16:56:51.275Z,100272.69
2023-02-28T16:59:22.450Z,100286.78
2023-02-28T17:01:49.193Z,100288.56
2023-02-28T17:04:16.785Z,100293.75
2023-02-28T17:06:43.626Z,100295.28
2023-02-28T17:09:28.252Z,100297.50
2023-02-28T17:11:57.784Z,100298.78
2023-02-28T17:14:24.596Z,100298.09
2023-02-28T17:16:51.390Z,100305.97
2023-02-28T17:19:19.368Z,100312.03
2023-02-28T17:21:45.987Z,100319.91
2023-02-28T17:24:29.834Z,100317.81
2023-02-28T17:26:57.022Z,100334.41
2023-02-28T17:29:25.368Z,100332.31
2023-02-28T17:31:52.071Z,100332.63
2023-02-28T17:34:22.563Z,100339.31
2023-02-28T17:36:50.970Z,100344.38
2023-02-28T17:39:28.414Z,100349.00
2023-02-28T17:41:56.286Z,100349.53
2023-02-28T17:44:24.845Z,100352.28
2023-02-28T17:46:51.955Z,100357.50
2023-02-28T17:49:19.110Z,100365.38
2023-02-28T17:51:45.809Z,100367.44
2023-02-28T17:54:12.362Z,100367.31
2023-02-28T17:56:38.908Z,100368.75
2023-02-28T17:59:05.579Z,100375.00
2023-02-28T18:01:32.324Z,100376.63
2023-02-28T18:03:58.870Z,100371.28
2023-02-28T18:06:32.336Z,100374.56
2023-02-28T18:08:59.108Z,100379.91
2023-02-28T18:11:27.176Z,100385.22
2023-02-28T18:13:56.740Z,100383.59
2023-02-28T18:16:23.668Z,100384.88
2023-02-28T18:18:50.578Z,100383.66
2023-02-28T18:21:17.506Z,100381.44
2023-02-28T18:23:52.126Z,100383.53
2023-02-28T18:26:20.077Z,100382.13
2023-02-28T18:28:47.416Z,100384.19
2023-02-28T18:31:17.291Z,100376.63
2023-02-28T18:33:45.221Z,100383.00
2023-02-28T18:36:11.829Z,100387.75
2023-02-28T18:38:39.055Z,100390.84
2023-02-28T18:41:07.508Z,100387.59
2023-02-28T18:43:36.261Z,100385.13
2023-02-28T18:46:07.591Z,100381.50
2023-02-28T18:48:34.681Z,100396.09
2023-02-28T18:51:19.366Z,100398.38
2023-02-28T18:53:46.447Z,100393.03
2023-02-28T18:56:15.808Z,100391.84
2023-02-28T18:58:42.891Z,100383.69
2023-02-28T19:01:29.980Z,100386.22
2023-02-28T19:03:57.758Z,100389.91
2023-02-28T19:06:24.462Z,100385.00
2023-02-28T19:08:55.293Z,100393.44
2023-02-28T19:11:22.616Z,100399.78
2023-02-28T19:13:49.282Z,100394.09
2023-02-28T19:16:19.085Z,100390.84
2023-02-28T19:18:45.689Z,100389.41
2023-02-28T19:21:14.292Z,100391.47
2023-02-28T19:23:41.323Z,100397.25
2023-02-28T19:26:10.144Z,100397.09
2023-02-28T19:28:37.320Z,100391.97
2023-02-28T19:31:04.386Z,100395.88
2023-02-28T19:33:31.253Z,100392.59
2023-02-28T19:36:01.462Z,100402.91
2023-02-28T19:38:28.242Z,100402.06
2023-02-28T19:41:02.535Z,100400.88
2023-02-28T19:43:29.096Z,100401.31
2023-02-28T19:45:55.675Z,100404.41
2023-02-28T19:48:26.219Z,100403.81
2023-02-28T19:51:01.440Z,100405.03
2023-02-28T19:53:30.598Z,100408.75
2023-02-28T19:55:57.289Z,100403.63
2023-02-28T19:58:24.008Z,100401.38
2023-02-28T20:00:50.702Z,100404.03
2023-02-28T20:03:18.535Z,100405.91
2023-02-28T20:05:46.188Z,100406.94
2023-02-28T20:08:13.707Z,100404.72
2023-02-28T20:10:40.436Z,100402.25
2023-02-28T20:13:07.049Z,100400.63
2023-02-28T20:15:33.790Z,100397.94
2023-02-28T20:18:00.551Z,100393.84
2023-02-28T20:20:27.240Z,100397.53
2023-02-28T20:22:53.831Z,100403.09
2023-02-28T20:25:20.968Z,100396.34
2023-02-28T20:27:47.632Z,100399.84
2023-02-28T20:30:14.374Z,100394.91
2023-02-28T20:32:40.957Z,100396.97
2023-02-28T20:35:10.660Z,100394.16
2023-02-28T20:37:37.623Z,100396.22
2023-02-28T20:40:04.784Z,100392.94
2023-02-28T20:42:31.444Z,100402.16
2023-02-28T20:44:58.016Z,100401.78
2023-02-28T20:47:24.720Z,100398.72
2023-02-28T20:49:51.243Z,100393.22
2023-02-28T20:52:17.776Z,100395.47
2023-02-28T20:54:44.575Z,100395.13
2023-02-28T20:57:11.163Z,100395.75
2023-02-28T20:59:39.858Z,100400.88
2023-02-28T21:02:07.238Z,100390.25
2023-02-28T21:04:34.027Z,100398.06
2023-02-28T21:07:00.617Z,100397.66
2023-02-28T21:09:28.990Z,100399.72
2023-02-28T21:11:55.711Z,100403.59
2023-02-28T21:14:22.393Z,100403.81
2023-02-28T21:16:49.071Z,100398.91
2023-02-28T21:19:16.972Z,100405.88
2023-02-28T21:21:44.879Z,100402.56
2023-02-28T21:24:13.116Z,100398.28
2023-02-28T21:26:40.882Z,100399.53
2023-02-28T21:29:07.885Z,100398.72
2023-02-28T21:31:35.789Z,100398.09
2023-02-28T21:34:04.920Z,100403.84
2023-02-28T21:36:36.020Z,100400.56
2023-02-28T21:39:09.197Z,100402.03
2023-02-28T21:41:36.477Z,100399.97
2023-02-28T21:44:03.264Z,100395.06
2023-02-28T21:46:34.336Z,100397.72
2023-02-28T21:49:01.147Z,100390.16
2023-02-28T21:51:31.298Z,100392.63
2023-02-28T21:53:59.656Z,100388.75
2023-02-28T21:56:29.581Z,100388.75
2023-02-28T21:59:00.531Z,100390.78
2023-02-28T22:01:38.812Z,100387.53
2023-02-28T22:04:08.935Z,100399.38
2023-02-28T22:06:39.416Z,100398.56
2023-02-28T22:09:07.964Z,100393.69
2023-02-28T22:11:36.862Z,100391.63
2023-02-28T22:14:03.437Z,100390.00
2023-02-28T22:16:40.752Z,100396.53
2023-02-28T22:19:16.543Z,100396.16
2023-02-28T22:21:43.070Z,100387.94
2023-02-28T22:24:11.345Z,100392.06
2023-02-28T22:26:38.010Z,100393.31
2023-02-28T22:29:04.632Z,100381.41
2023-02-28T22:31:33.637Z,100395.13
2023-02-28T22:34:05.962Z,100392.28
2023-02-28T22:36:33.191Z,100391.84
2023-02-28T22:39:01.099Z,100390.00
2023-02-28T22:41:28.928Z,100379.34
2023-02-28T22:43:59.300Z,100386.91
2023-02-28T22:46:27.321Z,100385.50
2023-02-28T22:48:53.992Z,100385.50
2023-02-28T22:51:25.519Z,100382.22
2023-02-28T22:53:54.094Z,100386.72
2023-02-28T22:56:22.442Z,100391.63
2023-02-28T22:58:50.873Z,100388.38
2023-02-28T23:01:18.817Z,100395.31
2023-02-28T23:03:45.611Z,100392.06
2023-02-28T23:06:14.114Z,100393.69
2023-02-28T23:08:41.266Z,100388.59
2023-02-28T23:11:08.116Z,100395.75
2023-02-28T23:13:34.952Z,100393.31
2023-02-28T23:16:05.050Z,100383.88
2023-02-28T23:18:31.622Z,100382.66
2023-02-28T23:20:58.173Z,100389.41
2023-02-28T23:23:24.865Z,100392.47
2023-02-28T23:25:51.404Z,100390.81
2023-02-28T23:28:17.944Z,100389.00
2023-02-28T23:30:44.477Z,100392.47
2023-02-28T23:33:11.021Z,100398.63
2023-02-28T23:35:38.037Z,100399.81
2023-02-28T23:38:05.151Z,100398.19
2023-02-28T23:40:31.683Z,100401.88
2023-02-28T23:42:58.153Z,100402.50
2023-02-28T23:45:24.778Z,100398.41
2023-02-28T23:47:51.382Z,100398.22
2023-02-28T23:50:18.039Z,100400.66
2023-02-28T23:52:44.581Z,100404.94
2023-02-28T23:55:11.364Z,100408.44
2023-02-28T23:57:37.928Z,100397.59
